Time;durP1;ratioP1;P1;durP2;ratioP2;P2;SDS_P1;SDS_P2;PMS_P1;PMS_P2;Temp;Humidity;BMP_temperature;BMP_pressure;BME280_temperature;BME280_humidity;BME280_pressure;Samples;Min_cycle;Max_cycle;Signal;HPM_P1;HPM_P2
2023/09/28 00:02:54;;;;;;;6.32;4.35;;;12.40;99.90;;;;;;5036142;28;20033;-78
2023/09/28 00:05:20;;;;;;;8.93;5.03;;;12.30;99.90;;;;;;5034229;28;20021;-80
2023/09/28 00:07:47;;;;;;;6.93;4.63;;;12.40;99.90;;;;;;5035706;28;20021;-78
2023/09/28 00:10:15;;;;;;;5.15;4.32;;;12.30;99.90;;;;;;5034997;28;20037;-78
2023/09/28 00:12:43;;;;;;;6.05;4.75;;;12.30;99.90;;;;;;5034834;28;20037;-78
2023/09/28 00:15:10;;;;;;;7.65;4.43;;;12.20;99.90;;;;;;5034258;28;20068;-78
2023/09/28 00:17:40;;;;;;;6.13;4.57;;;12.20;99.90;;;;;;5035675;28;20030;-80
2023/09/28 00:20:16;;;;;;;7.97;5.00;;;12.10;99.90;;;;;;5034086;28;20025;-78
2023/09/28 00:22:41;;;;;;;7.28;4.35;;;12.10;99.90;;;;;;5035970;28;20018;-79
2023/09/28 00:25:11;;;;;;;7.85;4.90;;;12.00;99.90;;;;;;5035229;28;20024;-78
2023/09/28 00:27:45;;;;;;;9.13;4.25;;;12.00;99.90;;;;;;5034070;28;20036;-77
2023/09/28 00:30:21;;;;;;;6.85;4.35;;;12.00;99.90;;;;;;5035262;28;20479;-78
2023/09/28 00:32:51;;;;;;;5.28;4.35;;;12.00;99.90;;;;;;5033909;28;20033;-77
2023/09/28 00:35:17;;;;;;;7.20;4.72;;;12.00;99.90;;;;;;5035141;28;20108;-77
2023/09/28 00:37:44;;;;;;;6.18;4.55;;;12.00;99.90;;;;;;5033983;28;20559;-77
2023/09/28 00:40:31;;;;;;;6.03;4.70;;;12.00;99.90;;;;;;5033086;28;20546;-78
2023/09/28 00:42:58;;;;;;;6.93;4.55;;;12.00;99.90;;;;;;5033808;28;20108;-79
2023/09/28 00:45:26;;;;;;;11.65;4.43;;;12.00;99.90;;;;;;5034936;28;20038;-78
2023/09/28 00:47:59;;;;;;;10.73;5.30;;;12.00;99.90;;;;;;5044539;23;20424;-77
2023/09/28 00:50:27;;;;;;;6.57;3.95;;;11.90;99.90;;;;;;5016287;28;20053;-77
2023/09/28 00:52:59;;;;;;;6.70;4.85;;;11.90;99.90;;;;;;5017141;28;20105;-77
2023/09/28 00:55:25;;;;;;;5.13;4.43;;;11.90;99.90;;;;;;5017546;28;20388;-77
2023/09/28 00:57:51;;;;;;;6.93;4.05;;;11.80;99.90;;;;;;5018097;28;20109;-77
2023/09/28 01:00:25;;;;;;;8.05;4.18;;;11.80;99.90;;;;;;5017544;28;20492;-78
2023/09/28 01:02:53;;;;;;;10.13;4.55;;;11.80;99.90;;;;;;5016466;28;20113;-77
2023/09/28 01:05:25;;;;;;;5.65;3.88;;;11.70;99.90;;;;;;5016262;28;20018;-78
2023/09/28 01:07:52;;;;;;;6.97;3.60;;;11.80;99.90;;;;;;5016795;28;20072;-77
2023/09/28 01:10:24;;;;;;;8.27;3.80;;;11.80;99.90;;;;;;5015806;28;20025;-78
2023/09/28 01:12:51;;;;;;;5.95;4.20;;;11.70;99.90;;;;;;5016809;28;20109;-77
2023/09/28 01:15:17;;;;;;;6.63;4.05;;;11.70;99.90;;;;;;5016253;28;20091;-76
2023/09/28 01:17:43;;;;;;;5.18;3.67;;;11.70;99.90;;;;;;5018042;28;20481;-77
2023/09/28 01:20:17;;;;;;;9.20;4.15;;;11.60;99.90;;;;;;5016345;28;20026;-76
2023/09/28 01:22:43;;;;;;;7.13;4.07;;;11.60;99.90;;;;;;5018130;28;20289;-78
2023/09/28 01:25:09;;;;;;;5.57;4.03;;;11.60;99.90;;;;;;5017761;28;20021;-78
2023/09/28 01:27:36;;;;;;;5.95;4.18;;;11.60;99.90;;;;;;5018273;28;20032;-76
2023/09/28 01:30:03;;;;;;;7.43;4.78;;;11.60;99.90;;;;;;5015902;28;20488;-77
2023/09/28 01:32:29;;;;;;;4.68;3.45;;;11.50;99.90;;;;;;5015850;28;20109;-77
2023/09/28 01:34:55;;;;;;;4.93;3.80;;;11.50;99.90;;;;;;5017520;28;20057;-76
2023/09/28 01:37:29;;;;;;;8.02;4.68;;;11.40;99.90;;;;;;5016535;28;20026;-78
2023/09/28 01:39:55;;;;;;;6.18;4.00;;;11.40;99.90;;;;;;5016992;28;20495;-77
2023/09/28 01:42:21;;;;;;;5.88;4.35;;;11.40;99.90;;;;;;5017413;28;20026;-78
2023/09/28 01:44:46;;;;;;;10.57;4.40;;;11.40;99.90;;;;;;5014621;28;20313;-77
2023/09/28 01:47:12;;;;;;;8.23;3.58;;;11.50;99.90;;;;;;5016805;28;20026;-77
2023/09/28 01:49:37;;;;;;;7.07;4.53;;;11.40;99.90;;;;;;5017290;28;20037;-78
2023/09/28 01:52:03;;;;;;;10.35;4.03;;;11.50;99.90;;;;;;5016288;28;20481;-77
2023/09/28 01:54:29;;;;;;;5.30;4.18;;;11.40;99.90;;;;;;5017483;28;20048;-78
2023/09/28 01:56:54;;;;;;;7.28;4.20;;;11.40;99.90;;;;;;5017004;28;20423;-77
2023/09/28 01:59:20;;;;;;;6.88;4.00;;;11.40;99.90;;;;;;5015155;28;20022;-78
2023/09/28 02:01:46;;;;;;;5.18;4.13;;;11.40;99.90;;;;;;5016191;28;20033;-78
2023/09/28 02:04:11;;;;;;;5.65;3.78;;;11.40;99.90;;;;;;5015567;28;20022;-76
2023/09/28 02:06:37;;;;;;;7.68;4.35;;;11.40;99.90;;;;;;5017215;28;20099;-78
2023/09/28 02:09:04;;;;;;;5.25;3.47;;;11.30;99.90;;;;;;5016118;28;20022;-78
2023/09/28 02:11:30;;;;;;;6.10;4.15;;;11.30;99.90;;;;;;5015366;28;20074;-77
2023/09/28 02:13:55;;;;;;;7.00;4.10;;;11.30;99.90;;;;;;5016840;28;20030;-78
2023/09/28 02:16:22;;;;;;;5.05;3.95;;;11.30;99.90;;;;;;5015531;28;20494;-77
2023/09/28 02:18:47;;;;;;;5.40;4.07;;;11.30;99.90;;;;;;5016946;28;20018;-76
2023/09/28 02:21:14;;;;;;;5.28;4.30;;;11.20;99.90;;;;;;5017796;28;20566;-77
2023/09/28 02:23:40;;;;;;;6.50;4.00;;;11.30;99.90;;;;;;5016142;28;20019;-77
2023/09/28 02:26:07;;;;;;;6.43;4.78;;;11.20;99.90;;;;;;5015330;28;20052;-76
2023/09/28 02:28:33;;;;;;;7.00;4.47;;;11.20;99.90;;;;;;5015299;28;20510;-77
2023/09/28 02:31:06;;;;;;;6.15;4.40;;;11.20;99.90;;;;;;5015768;28;20033;-77
2023/09/28 02:33:32;;;;;;;12.57;4.60;;;11.20;99.90;;;;;;5016091;28;20021;-77
2023/09/28 02:35:57;;;;;;;8.63;4.53;;;11.20;99.90;;;;;;5014165;28;20040;-79
2023/09/28 02:38:23;;;;;;;5.13;4.18;;;11.20;99.90;;;;;;5016633;28;20069;-79
2023/09/28 02:40:48;;;;;;;7.88;4.90;;;11.10;99.90;;;;;;5017450;28;20022;-77
2023/09/28 02:43:14;;;;;;;6.85;4.28;;;11.10;99.90;;;;;;5015821;28;20080;-77
2023/09/28 02:45:40;;;;;;;6.90;3.97;;;11.10;99.90;;;;;;5016865;28;20025;-77
2023/09/28 02:48:05;;;;;;;6.28;4.50;;;11.20;99.90;;;;;;5015173;28;20400;-78
2023/09/28 02:50:31;;;;;;;8.20;3.70;;;11.20;99.90;;;;;;5016094;28;20511;-77
2023/09/28 02:52:57;;;;;;;5.35;3.88;;;11.10;99.90;;;;;;5015638;28;20026;-77
2023/09/28 02:55:22;;;;;;;7.25;4.05;;;11.20;99.90;;;;;;5015031;28;20037;-77
2023/09/28 02:57:49;;;;;;;5.57;4.60;;;11.20;99.90;;;;;;5017358;28;20029;-78
2023/09/28 03:02:43;;;;;;;5.07;4.00;;;11.20;99.90;;;;;;5017809;28;20033;-78
2023/09/28 03:05:10;;;;;;;6.32;4.60;;;11.10;99.90;;;;;;5021029;28;20027;-78
2023/09/28 03:07:39;;;;;;;6.88;4.55;;;11.20;99.90;;;;;;5020191;28;20049;-78
2023/09/28 03:10:05;;;;;;;6.00;4.03;;;11.20;99.90;;;;;;5019849;28;20407;-77
2023/09/28 03:12:31;;;;;;;9.55;4.72;;;11.10;99.90;;;;;;5019287;28;20037;-77
2023/09/28 03:14:57;;;;;;;9.38;4.68;;;11.10;99.90;;;;;;5019011;28;20021;-77
2023/09/28 03:17:22;;;;;;;5.30;4.20;;;11.00;99.90;;;;;;5019898;28;20034;-76
2023/09/28 03:19:48;;;;;;;6.22;4.07;;;11.00;99.90;;;;;;5021124;28;20076;-77
2023/09/28 03:22:14;;;;;;;8.65;4.38;;;11.00;99.90;;;;;;5021344;28;20072;-77
2023/09/28 03:24:39;;;;;;;5.82;4.50;;;11.00;99.90;;;;;;5019978;28;20396;-77
2023/09/28 03:27:08;;;;;;;6.78;4.43;;;10.90;99.90;;;;;;5019846;28;20026;-77
2023/09/28 03:29:34;;;;;;;7.32;4.10;;;10.90;99.90;;;;;;5020403;28;20037;-77
2023/09/28 03:31:59;;;;;;;7.00;4.15;;;10.90;99.90;;;;;;5020598;28;20026;-76
2023/09/28 03:34:25;;;;;;;5.97;4.63;;;10.90;99.90;;;;;;5018877;28;20022;-76
2023/09/28 03:36:51;;;;;;;12.35;4.80;;;10.90;99.90;;;;;;5020529;28;20125;-76
2023/09/28 03:39:18;;;;;;;8.23;5.30;;;10.90;99.90;;;;;;5019178;28;20061;-75
2023/09/28 03:41:44;;;;;;;6.60;4.20;;;10.90;99.90;;;;;;5019969;28;20028;-76
2023/09/28 03:44:10;;;;;;;6.90;5.65;;;10.90;99.90;;;;;;5018475;28;20026;-76
2023/09/28 03:46:36;;;;;;;9.98;5.32;;;10.90;99.90;;;;;;5019585;28;20053;-77
2023/09/28 03:49:02;;;;;;;6.65;4.28;;;10.80;99.90;;;;;;5020679;28;20041;-77
2023/09/28 03:51:27;;;;;;;6.00;4.72;;;10.80;99.90;;;;;;5023624;28;20052;-77
2023/09/28 03:53:53;;;;;;;6.95;3.88;;;10.70;99.90;;;;;;5024591;28;20022;-77
2023/09/28 03:56:19;;;;;;;9.02;4.75;;;10.70;99.90;;;;;;5020648;28;20109;-79
2023/09/28 03:58:45;;;;;;;7.70;4.53;;;10.60;99.90;;;;;;5020427;28;20559;-77
2023/09/28 04:01:10;;;;;;;8.75;3.95;;;10.60;99.90;;;;;;5022176;28;20058;-79
2023/09/28 04:03:36;;;;;;;6.18;4.47;;;10.60;99.90;;;;;;5019281;28;20037;-77
2023/09/28 04:06:02;;;;;;;8.88;4.28;;;10.60;99.90;;;;;;5020561;28;20026;-78
2023/09/28 04:08:28;;;;;;;4.75;3.47;;;10.60;99.90;;;;;;5019615;28;20525;-76
2023/09/28 04:10:55;;;;;;;8.43;4.72;;;10.60;99.90;;;;;;5018814;28;20030;-77
2023/09/28 04:13:20;;;;;;;10.18;4.32;;;10.60;99.90;;;;;;5018822;28;20032;-78
2023/09/28 04:15:48;;;;;;;5.65;4.25;;;10.60;99.90;;;;;;5019185;28;20507;-78
2023/09/28 04:18:14;;;;;;;7.85;4.35;;;10.60;99.90;;;;;;5019788;28;20513;-77
2023/09/28 04:20:41;;;;;;;8.40;4.30;;;10.50;99.90;;;;;;5021395;28;20033;-78
2023/09/28 04:23:08;;;;;;;6.00;4.13;;;10.50;99.90;;;;;;5019315;28;20022;-78
2023/09/28 04:25:35;;;;;;;7.80;4.10;;;10.50;99.90;;;;;;5019705;28;20018;-76
2023/09/28 04:28:01;;;;;;;12.95;4.60;;;10.50;99.90;;;;;;5020837;28;20030;-77
2023/09/28 04:30:27;;;;;;;6.72;5.13;;;10.50;99.90;;;;;;5018648;28;20037;-77
2023/09/28 04:32:54;;;;;;;5.40;3.92;;;10.40;99.90;;;;;;5021723;28;20024;-78
2023/09/28 04:35:20;;;;;;;9.73;5.00;;;10.40;99.90;;;;;;5019003;28;20026;-77
2023/09/28 04:37:47;;;;;;;8.60;4.22;;;10.40;99.90;;;;;;5020065;28;20393;-76
2023/09/28 04:40:13;;;;;;;6.22;4.75;;;10.40;99.90;;;;;;5018676;28;20026;-78
2023/09/28 04:42:40;;;;;;;7.97;4.28;;;10.40;99.90;;;;;;5020960;28;20022;-77
2023/09/28 04:45:06;;;;;;;9.98;5.03;;;10.50;99.90;;;;;;5022613;28;20026;-77
2023/09/28 04:47:32;;;;;;;7.22;5.25;;;10.50;99.90;;;;;;5022163;28;20026;-78
2023/09/28 04:49:58;;;;;;;12.30;7.68;;;10.50;99.90;;;;;;5019625;28;20022;-77
2023/09/28 04:52:24;;;;;;;9.13;6.25;;;11.60;99.90;;;;;;5021383;28;20026;-76
2023/09/28 04:54:51;;;;;;;16.08;5.68;;;11.30;99.90;;;;;;5020501;28;20057;-79
2023/09/28 04:57:20;;;;;;;9.27;4.68;;;11.10;99.90;;;;;;5022463;28;20030;-77
2023/09/28 04:59:45;;;;;;;6.22;4.90;;;11.00;99.90;;;;;;5016232;28;20385;-80
2023/09/28 05:02:11;;;;;;;9.95;5.55;;;10.90;99.90;;;;;;5017713;28;20117;-76
2023/09/28 05:04:37;;;;;;;10.65;5.10;;;10.80;99.90;;;;;;5014922;28;20026;-76
2023/09/28 05:07:04;;;;;;;8.50;5.00;;;10.70;99.90;;;;;;5015257;28;20057;-77
2023/09/28 05:09:30;;;;;;;7.85;4.85;;;10.70;99.90;;;;;;5016546;28;20030;-76
2023/09/28 05:11:59;;;;;;;8.82;4.72;;;10.70;99.90;;;;;;5016570;28;20038;-79
2023/09/28 05:14:25;;;;;;;5.60;4.63;;;10.60;99.90;;;;;;5019289;28;20018;-76
2023/09/28 05:16:52;;;;;;;8.23;5.22;;;10.60;99.90;;;;;;5016781;28;20037;-76
2023/09/28 05:19:18;;;;;;;9.50;5.70;;;10.60;99.90;;;;;;5017454;28;20026;-76
2023/09/28 05:21:43;;;;;;;8.63;6.00;;;10.60;99.90;;;;;;5015867;28;20026;-77
2023/09/28 05:24:10;;;;;;;10.75;5.93;;;10.70;99.90;;;;;;5015286;28;20432;-77
2023/09/28 05:26:35;;;;;;;7.63;4.82;;;10.70;99.90;;;;;;5014970;28;20022;-76
2023/09/28 05:29:01;;;;;;;10.95;5.78;;;10.70;99.90;;;;;;5017835;28;20105;-77
2023/09/28 05:31:27;;;;;;;14.20;5.70;;;10.80;99.90;;;;;;5016773;28;20050;-77
2023/09/28 05:33:52;;;;;;;7.32;5.10;;;10.90;99.90;;;;;;5016595;28;20026;-78
2023/09/28 05:36:20;;;;;;;6.97;5.50;;;10.90;99.90;;;;;;5014994;28;20033;-77
2023/09/28 05:38:46;;;;;;;8.00;5.57;;;10.90;99.90;;;;;;5015199;28;20018;-77
2023/09/28 05:41:12;;;;;;;11.02;5.20;;;10.90;99.90;;;;;;5016737;28;20040;-78
2023/09/28 05:43:38;;;;;;;17.70;7.25;;;11.00;99.90;;;;;;5018389;28;20073;-77
2023/09/28 05:46:04;;;;;;;13.20;6.63;;;11.10;99.90;;;;;;5015208;28;20033;-78
2023/09/28 05:48:30;;;;;;;15.52;6.53;;;11.20;99.90;;;;;;4975267;28;1149607;-76
2023/09/28 05:50:56;;;;;;;14.35;6.25;;;11.30;99.90;;;;;;5015493;28;20549;-78
2023/09/28 05:53:21;;;;;;;11.02;5.72;;;11.30;99.90;;;;;;5016838;28;20034;-77
2023/09/28 05:55:49;;;;;;;10.63;6.47;;;11.40;99.90;;;;;;5016122;28;20030;-77
2023/09/28 05:58:15;;;;;;;10.88;5.97;;;11.40;99.90;;;;;;5015356;28;20489;-76
2023/09/28 06:00:40;;;;;;;12.77;5.90;;;11.50;99.90;;;;;;5016254;28;20136;-77
2023/09/28 06:03:06;;;;;;;9.95;6.38;;;11.50;99.90;;;;;;5015261;28;20058;-77
2023/09/28 06:05:31;;;;;;;14.95;6.88;;;11.60;99.90;;;;;;5016798;28;20064;-76
2023/09/28 06:07:58;;;;;;;8.30;5.43;;;11.60;99.90;;;;;;5015755;28;20045;-78
2023/09/28 06:10:23;;;;;;;9.82;6.45;;;11.70;99.90;;;;;;5015355;28;20519;-76
2023/09/28 06:12:49;;;;;;;9.27;6.57;;;11.70;99.90;;;;;;5015850;28;20037;-79
2023/09/28 06:15:15;;;;;;;8.55;6.10;;;11.80;99.90;;;;;;5013385;28;20022;-76
2023/09/28 06:17:40;;;;;;;10.63;6.80;;;11.90;99.90;;;;;;5014116;28;20480;-77
2023/09/28 06:20:07;;;;;;;11.27;6.55;;;12.00;99.90;;;;;;5014169;28;20535;-78
2023/09/28 06:22:33;;;;;;;9.80;6.55;;;12.10;99.90;;;;;;5016029;28;20018;-77
2023/09/28 06:24:59;;;;;;;8.82;6.50;;;12.20;99.90;;;;;;5015586;28;20029;-78
2023/09/28 06:27:25;;;;;;;12.02;6.35;;;12.20;99.90;;;;;;5015296;28;20518;-77
2023/09/28 06:29:53;;;;;;;8.95;6.03;;;12.40;99.90;;;;;;5015835;28;20022;-77
2023/09/28 06:32:21;;;;;;;14.55;7.97;;;13.90;99.90;;;;;;5015165;28;20033;-76
2023/09/28 06:34:46;;;;;;;12.52;6.88;;;13.50;99.90;;;;;;5013827;28;20049;-78
2023/09/28 06:37:12;;;;;;;14.15;8.48;;;13.40;99.90;;;;;;5013229;28;20030;-77
2023/09/28 06:39:38;;;;;;;11.02;7.75;;;13.30;99.90;;;;;;5014531;28;20061;-77
2023/09/28 06:42:04;;;;;;;9.30;6.63;;;13.30;99.90;;;;;;5014538;28;20030;-78
2023/09/28 06:44:30;;;;;;;9.25;6.65;;;13.30;99.90;;;;;;5013523;28;20056;-76
2023/09/28 06:49:23;;;;;;;9.93;6.25;;;13.40;99.90;;;;;;5051608;28;20067;-78
2023/09/28 06:51:49;;;;;;;10.07;5.55;;;13.50;99.90;;;;;;5055834;28;20021;-79
2023/09/28 06:54:16;;;;;;;11.32;7.15;;;13.60;99.90;;;;;;5055426;28;20067;-79
2023/09/28 06:56:42;;;;;;;12.07;6.93;;;13.70;99.90;;;;;;5054340;28;20071;-78
2023/09/28 06:59:07;;;;;;;9.43;6.40;;;13.80;99.90;;;;;;5072923;28;20151;-77
2023/09/28 07:01:35;;;;;;;11.13;6.38;;;13.90;99.90;;;;;;5073052;28;20027;-78
2023/09/28 07:04:00;;;;;;;10.70;6.97;;;14.10;99.90;;;;;;5072823;28;20023;-78
2023/09/28 07:06:26;;;;;;;10.93;7.60;;;14.20;99.90;;;;;;5072959;28;20409;-78
2023/09/28 07:08:54;;;;;;;9.73;6.00;;;14.30;99.90;;;;;;5073312;28;20017;-78
2023/09/28 07:11:20;;;;;;;13.93;6.97;;;14.50;99.90;;;;;;5072762;28;20038;-77
2023/09/28 07:13:46;;;;;;;10.27;6.47;;;14.60;99.90;;;;;;5072354;28;20024;-78
2023/09/28 07:16:12;;;;;;;9.93;6.63;;;14.80;99.90;;;;;;5073461;28;20032;-77
2023/09/28 07:18:37;;;;;;;7.82;5.50;;;14.90;99.90;;;;;;5073073;28;20024;-77
2023/09/28 07:21:03;;;;;;;9.43;5.78;;;15.00;99.90;;;;;;5074813;28;20025;-77
2023/09/28 07:23:29;;;;;;;7.57;5.63;;;15.10;99.90;;;;;;5073220;28;20021;-78
2023/09/28 07:25:55;;;;;;;11.52;5.75;;;15.30;99.90;;;;;;5072355;28;20375;-77
2023/09/28 07:28:21;;;;;;;10.18;5.85;;;15.40;99.90;;;;;;5072779;28;20020;-76
2023/09/28 07:30:47;;;;;;;11.82;5.70;;;15.50;99.90;;;;;;5074695;28;20032;-77
2023/09/28 07:33:15;;;;;;;9.38;5.50;;;15.60;99.90;;;;;;5075455;28;20036;-76
2023/09/28 07:35:43;;;;;;;9.23;4.93;;;15.70;99.90;;;;;;5074898;28;20028;-77
2023/09/28 07:38:09;;;;;;;6.80;5.45;;;15.80;99.90;;;;;;5073209;28;20032;-77
2023/09/28 07:40:35;;;;;;;13.63;5.30;;;16.00;99.90;;;;;;5072682;28;20078;-78
2023/09/28 07:43:00;;;;;;;8.60;5.82;;;16.10;99.90;;;;;;5073996;28;20021;-76
2023/09/28 07:45:26;;;;;;;8.88;5.28;;;16.30;99.90;;;;;;5072057;28;20021;-78
2023/09/28 07:47:52;;;;;;;8.68;4.70;;;16.40;99.90;;;;;;5071443;28;20540;-78
2023/09/28 07:50:18;;;;;;;7.15;5.07;;;16.50;99.90;;;;;;5076900;28;20517;-77
2023/09/28 07:52:44;;;;;;;6.97;4.35;;;16.60;99.90;;;;;;5076993;28;20039;-77
2023/09/28 07:55:12;;;;;;;5.60;5.03;;;16.70;99.90;;;;;;5076358;28;20025;-77
2023/09/28 07:57:38;;;;;;;5.72;4.35;;;16.80;99.90;;;;;;5076575;28;20475;-78
2023/09/28 08:00:06;;;;;;;6.50;4.32;;;16.90;99.90;;;;;;5076987;28;20024;-78
2023/09/28 08:02:32;;;;;;;6.00;4.40;;;17.10;99.90;;;;;;5077493;28;20016;-78
2023/09/28 08:04:58;;;;;;;6.50;4.72;;;17.30;99.90;;;;;;5075426;28;20033;-77
2023/09/28 08:07:24;;;;;;;9.55;4.80;;;17.40;99.90;;;;;;5075863;28;20021;-76
2023/09/28 08:09:50;;;;;;;4.75;3.70;;;17.60;99.90;;;;;;5075310;28;20036;-77
2023/09/28 08:12:16;;;;;;;8.18;4.30;;;17.70;99.90;;;;;;5074790;28;20028;-77
2023/09/28 08:14:42;;;;;;;7.47;4.07;;;17.80;99.90;;;;;;5075333;28;20028;-76
2023/09/28 08:17:09;;;;;;;4.78;3.67;;;18.00;99.90;;;;;;5077261;28;20028;-78
2023/09/28 08:19:36;;;;;;;6.43;3.70;;;18.10;99.90;;;;;;5076897;28;20104;-77
2023/09/28 08:22:05;;;;;;;4.05;3.30;;;18.20;99.90;;;;;;5076863;28;20021;-80
2023/09/28 08:24:31;;;;;;;6.75;3.72;;;18.30;99.90;;;;;;5074684;28;20020;-80
2023/09/28 08:26:56;;;;;;;4.18;3.42;;;18.40;99.90;;;;;;5074579;28;20391;-80
2023/09/28 08:29:22;;;;;;;9.27;4.15;;;18.60;99.90;;;;;;5076489;28;20470;-80
2023/09/28 08:31:48;;;;;;;5.53;3.72;;;18.80;99.90;;;;;;5076334;28;20501;-79
2023/09/28 08:34:13;;;;;;;5.78;4.05;;;18.90;99.90;;;;;;5076355;28;20028;-78
2023/09/28 08:36:39;;;;;;;8.50;4.45;;;19.10;99.90;;;;;;5076303;28;20031;-79
2023/09/28 08:39:06;;;;;;;7.22;4.05;;;19.20;99.90;;;;;;5077407;28;20046;-79
2023/09/28 08:41:55;;;;;;;11.93;4.13;;;19.40;99.90;;;;;;5076215;28;20040;-79
2023/09/28 08:44:24;;;;;;;5.32;3.83;;;19.60;99.90;;;;;;5077469;28;20013;-79
2023/09/28 08:46:57;;;;;;;5.75;4.72;;;19.80;99.90;;;;;;5077199;28;20021;-78
2023/09/28 08:49:27;;;;;;;5.93;3.72;;;20.00;99.90;;;;;;5077867;28;20056;-80
2023/09/28 08:51:54;;;;;;;5.05;4.00;;;20.10;99.90;;;;;;5076885;28;20436;-79
2023/09/28 08:54:22;;;;;;;3.53;3.13;;;20.30;99.90;;;;;;5077241;28;20509;-79
2023/09/28 08:56:50;;;;;;;8.95;3.63;;;20.40;99.90;;;;;;5075108;28;20032;-79
2023/09/28 08:59:18;;;;;;;5.65;3.90;;;20.50;99.90;;;;;;5075802;28;20067;-79
2023/09/28 09:01:46;;;;;;;3.67;3.38;;;20.60;99.90;;;;;;5075930;28;20024;-80
2023/09/28 09:04:12;;;;;;;4.00;3.60;;;20.70;99.90;;;;;;5076248;28;20028;-79
2023/09/28 09:06:37;;;;;;;6.30;3.92;;;20.90;99.90;;;;;;5076768;28;20670;-80
2023/09/28 09:09:11;;;;;;;5.28;3.63;;;21.00;99.90;;;;;;5075982;28;20021;-79
2023/09/28 09:11:37;;;;;;;4.55;3.42;;;21.10;99.90;;;;;;5076051;28;20056;-79
2023/09/28 09:14:03;;;;;;;9.32;4.43;;;21.30;99.90;;;;;;5076044;28;20020;-79
2023/09/28 09:16:30;;;;;;;4.35;3.22;;;21.30;99.90;;;;;;5076492;28;20028;-81
2023/09/28 09:18:57;;;;;;;4.57;2.60;;;21.50;99.90;;;;;;5076261;28;20020;-79
2023/09/28 09:21:23;;;;;;;5.22;3.58;;;21.70;99.90;;;;;;5074403;28;20028;-79
2023/09/28 09:24:01;;;;;;;4.50;3.03;;;21.80;99.90;;;;;;5077530;28;20025;-79
2023/09/28 09:26:27;;;;;;;4.68;3.55;;;21.90;99.10;;;;;;5076825;28;20027;-80
2023/09/28 09:28:58;;;;;;;5.75;4.50;;;22.10;98.50;;;;;;5074389;28;20021;-80
2023/09/28 09:31:24;;;;;;;4.47;3.15;;;22.10;97.50;;;;;;5073039;28;20478;-81
2023/09/28 09:33:50;;;;;;;5.45;2.80;;;22.20;95.30;;;;;;5073740;28;20025;-79
2023/09/28 09:36:18;;;;;;;8.65;2.90;;;22.30;94.60;;;;;;5072765;28;20035;-81
2023/09/28 09:38:44;;;;;;;4.15;3.22;;;22.50;93.20;;;;;;5072249;28;20032;-80
2023/09/28 09:41:11;;;;;;;7.18;3.17;;;22.60;91.70;;;;;;5073038;28;20025;-81
2023/09/28 09:43:41;;;;;;;6.43;2.58;;;22.60;91.60;;;;;;5072832;28;20025;-79
2023/09/28 09:46:07;;;;;;;4.63;2.40;;;22.70;91.90;;;;;;5074168;28;20074;-81
2023/09/28 09:48:41;;;;;;;7.35;2.75;;;22.70;85.80;;;;;;5073130;28;20025;-80
2023/09/28 09:51:12;;;;;;;4.85;2.83;;;22.80;90.00;;;;;;5073518;28;20051;-80
2023/09/28 09:53:47;;;;;;;4.40;2.70;;;22.90;90.50;;;;;;5073319;28;20048;-80
2023/09/28 09:56:15;;;;;;;7.18;2.55;;;22.90;87.90;;;;;;5074952;28;20417;-79
2023/09/28 09:58:42;;;;;;;3.25;2.70;;;22.90;88.60;;;;;;5074027;28;20101;-77
2023/09/28 10:01:13;;;;;;;3.17;2.53;;;23.00;88.50;;;;;;5077280;28;20029;-78
2023/09/28 10:03:51;;;;;;;2.33;2.13;;;23.00;90.10;;;;;;5074140;28;20020;-79
2023/09/28 10:06:19;;;;;;;7.78;2.30;;;23.10;85.10;;;;;;5074092;28;20103;-79
2023/09/28 10:08:46;;;;;;;5.07;2.25;;;23.20;85.80;;;;;;5076135;28;20044;-81
2023/09/28 10:11:13;;;;;;;3.67;1.98;;;23.30;82.70;;;;;;5074812;28;20033;-81
2023/09/28 10:13:39;;;;;;;3.95;2.42;;;23.40;77.30;;;;;;5073625;28;20398;-81
2023/09/28 10:16:08;;;;;;;5.22;2.75;;;23.50;77.70;;;;;;5073470;28;20093;-81
2023/09/28 10:18:36;;;;;;;6.43;2.75;;;23.60;74.70;;;;;;5074168;28;20390;-81
2023/09/28 10:21:02;;;;;;;6.03;2.38;;;23.60;74.30;;;;;;5075271;28;20394;-81
2023/09/28 10:23:31;;;;;;;2.17;2.00;;;23.60;70.10;;;;;;5074614;28;20020;-80
2023/09/28 10:25:57;;;;;;;4.07;2.13;;;23.70;73.40;;;;;;5076390;28;20048;-80
2023/09/28 10:28:24;;;;;;;2.15;1.95;;;23.80;74.00;;;;;;5076422;28;20027;-79
2023/09/28 10:31:04;;;;;;;6.28;2.40;;;23.90;73.10;;;;;;5077180;28;20048;-80
2023/09/28 10:33:33;;;;;;;2.40;2.05;;;24.00;71.80;;;;;;5077115;28;20027;-82
2023/09/28 10:36:28;;;;;;;8.93;2.08;;;24.10;70.10;;;;;;5079124;28;20111;-82
2023/09/28 10:39:09;;;;;;;4.88;2.08;;;24.20;71.40;;;;;;5078003;28;20040;-83
2023/09/28 10:41:39;;;;;;;4.18;1.70;;;24.30;68.00;;;;;;5078451;28;20035;-82
2023/09/28 10:44:31;;;;;;;5.03;2.08;;;24.30;67.10;;;;;;5078989;28;20017;-82
2023/09/28 10:46:58;;;;;;;5.00;2.17;;;24.30;67.40;;;;;;5079304;28;20074;-82
2023/09/28 10:49:27;;;;;;;7.93;2.50;;;24.40;66.60;;;;;;5080056;28;20024;-84
2023/09/28 10:51:57;;;;;;;3.90;1.85;;;24.40;69.00;;;;;;5074464;28;20017;-84
2023/09/28 10:54:27;;;;;;;3.97;2.30;;;24.30;68.20;;;;;;5073919;28;20093;-85
2023/09/28 10:56:53;;;;;;;9.65;3.38;;;24.40;69.90;;;;;;5074335;28;20386;-84
2023/09/28 10:59:19;;;;;;;5.85;1.88;;;24.50;68.80;;;;;;5074494;28;20029;-84
2023/09/28 11:01:46;;;;;;;2.40;2.15;;;24.50;67.30;;;;;;5075073;28;20029;-82
2023/09/28 11:04:15;;;;;;;3.40;2.72;;;24.60;68.40;;;;;;5079385;28;20590;-82
2023/09/28 11:06:44;;;;;;;4.07;2.30;;;24.60;67.60;;;;;;5079929;28;20099;-82
2023/09/28 11:09:12;;;;;;;2.47;2.20;;;24.60;65.30;;;;;;5080164;28;20073;-81
2023/09/28 11:11:38;;;;;;;5.03;2.08;;;24.60;64.80;;;;;;5079510;28;20125;-81
2023/09/28 11:14:07;;;;;;;3.80;2.25;;;24.70;64.10;;;;;;5080928;28;20060;-81
2023/09/28 11:16:34;;;;;;;3.40;1.75;;;24.80;64.00;;;;;;5085457;28;20042;-80
2023/09/28 11:19:00;;;;;;;3.78;1.77;;;24.80;63.50;;;;;;5096704;28;20009;-79
2023/09/28 11:21:28;;;;;;;5.70;2.03;;;24.80;65.70;;;;;;5096331;28;20048;-80
2023/09/28 11:23:54;;;;;;;3.65;2.28;;;24.80;62.20;;;;;;5097656;28;20017;-79
2023/09/28 11:26:21;;;;;;;3.47;1.92;;;24.90;60.20;;;;;;5100356;28;20019;-79
2023/09/28 11:28:48;;;;;;;3.58;2.22;;;24.90;59.90;;;;;;5100458;28;20024;-79
2023/09/28 11:31:14;;;;;;;6.03;2.53;;;24.80;60.10;;;;;;5100601;28;20031;-79
2023/09/28 11:33:45;;;;;;;3.88;2.20;;;24.80;57.80;;;;;;5099500;28;20016;-78
2023/09/28 11:36:20;;;;;;;3.90;2.00;;;24.80;60.10;;;;;;5100030;28;20100;-79
2023/09/28 11:38:47;;;;;;;4.70;2.40;;;24.70;59.60;;;;;;5099100;28;20012;-79
2023/09/28 11:41:13;;;;;;;3.55;2.20;;;24.40;61.80;;;;;;5100774;28;20033;-79
2023/09/28 11:43:49;;;;;;;6.97;1.98;;;24.50;63.90;;;;;;5100139;28;20028;-79
2023/09/28 11:46:25;;;;;;;2.33;2.13;;;24.70;63.80;;;;;;5099917;28;20028;-79
2023/09/28 11:49:09;;;;;;;3.33;2.00;;;24.80;63.30;;;;;;5101058;28;20021;-78
2023/09/28 11:51:37;;;;;;;1.98;1.77;;;25.00;60.10;;;;;;5088116;28;20024;-81
2023/09/28 11:54:11;;;;;;;4.13;2.10;;;25.00;58.90;;;;;;5076304;28;20039;-80
2023/09/28 11:56:39;;;;;;;2.63;1.90;;;25.20;60.00;;;;;;5077591;28;20036;-81
2023/09/28 11:59:06;;;;;;;4.43;2.22;;;25.20;58.70;;;;;;5077599;28;20074;-81
2023/09/28 12:01:32;;;;;;;4.43;2.00;;;25.30;59.50;;;;;;5077285;28;20052;-81
2023/09/28 12:03:59;;;;;;;4.95;2.20;;;25.40;60.50;;;;;;5077616;28;20378;-80
2023/09/28 12:06:25;;;;;;;2.53;1.92;;;25.40;59.90;;;;;;5077689;28;20017;-76
2023/09/28 12:08:51;;;;;;;2.97;2.30;;;25.30;58.80;;;;;;5073973;28;20089;-77
2023/09/28 12:11:16;;;;;;;6.10;2.30;;;25.20;59.70;;;;;;5073845;28;20495;-77
2023/09/28 12:13:42;;;;;;;3.58;2.85;;;25.20;58.30;;;;;;5074091;28;20495;-77
2023/09/28 12:16:08;;;;;;;3.70;2.47;;;25.20;57.60;;;;;;5074088;28;20081;-80
2023/09/28 12:18:34;;;;;;;6.10;2.33;;;25.30;56.30;;;;;;5077383;28;20020;-79
2023/09/28 12:21:00;;;;;;;3.35;2.85;;;25.20;56.10;;;;;;5078028;28;20035;-79
2023/09/28 12:23:26;;;;;;;4.10;2.40;;;25.20;55.60;;;;;;5076613;28;20031;-80
2023/09/28 12:25:54;;;;;;;2.22;1.88;;;25.30;54.50;;;;;;5075941;28;20025;-80
2023/09/28 12:28:22;;;;;;;3.63;2.90;;;25.50;52.50;;;;;;5076284;28;20028;-80
2023/09/28 12:30:48;;;;;;;3.70;2.45;;;25.60;54.90;;;;;;5076664;28;20021;-80
2023/09/28 12:33:13;;;;;;;2.63;2.28;;;25.80;54.90;;;;;;5077875;28;20031;-80
2023/09/28 12:35:39;;;;;;;3.42;2.30;;;25.80;54.20;;;;;;5075162;28;20514;-80
2023/09/28 12:38:07;;;;;;;9.88;2.58;;;25.60;54.80;;;;;;5076377;28;20506;-80
2023/09/28 12:40:33;;;;;;;3.53;2.17;;;25.40;54.70;;;;;;5076544;28;20036;-80
2023/09/28 12:43:05;;;;;;;2.15;1.95;;;25.20;56.50;;;;;;5076838;28;20110;-80
2023/09/28 12:45:37;;;;;;;6.85;2.90;;;25.20;56.40;;;;;;5075749;28;20457;-80
2023/09/28 12:48:04;;;;;;;3.03;2.20;;;25.20;57.90;;;;;;5075407;22;20041;-78
2023/09/28 12:50:30;;;;;;;3.85;2.58;;;25.10;56.80;;;;;;5014665;28;20030;-79
2023/09/28 12:52:57;;;;;;;3.70;1.98;;;25.20;58.10;;;;;;5013197;28;20029;-79